Ingoldmells, United Kingdom
Current Conditions -  °F | °C
As of 11:50 AM on Monday 26 Jan 2015 (Local Time) from EGXS Reporting Station
Clear Clear  
Wind Chill: 39°   Ceiling: Unl
Heat Index: 46°   Visibility: 6mi
Dew Point: 37°   Wind: 20mph
Humidity: 71%   Direction: 270°W
Pressure: 30.12"   Gusts: NA
Location:  53.19°N, 0.33°E
Report Text: EGXS 261150Z AUTO 27017KT 9999 // NCD 08/03 Q1020
Loading
Personal Weather Stations






























Interactive Weather Map New forecast layout! Learn more

10-Day Weather Forecast

Advertisements
Track Severe Weather on mobile